createdAt,value
2023-03-08T00:04:55.270Z,26.70
2023-03-08T00:09:59.211Z,28.02
2023-03-08T00:15:01.827Z,27.13
2023-03-08T00:20:05.835Z,28.42
2023-03-08T00:25:11.405Z,28.00
2023-03-08T00:30:15.069Z,27.95
2023-03-08T00:45:26.429Z,28.83
2023-03-08T00:50:28.982Z,25.48
2023-03-08T00:55:32.892Z,29.55
2023-03-08T01:00:35.492Z,32.30
2023-03-08T01:05:40.753Z,35.38
2023-03-08T01:10:49.456Z,33.50
2023-03-08T01:15:52.074Z,40.55
2023-03-08T01:20:59.755Z,39.95
2023-03-08T01:26:05.862Z,38.92
2023-03-08T01:31:09.751Z,42.53
2023-03-08T01:36:15.168Z,39.78
2023-03-08T01:41:22.026Z,42.83
2023-03-08T01:46:28.091Z,44.40
2023-03-08T01:51:36.563Z,41.80
2023-03-08T01:56:41.926Z,47.40
2023-03-08T02:01:46.310Z,48.65
2023-03-08T02:06:48.862Z,43.90
2023-03-08T02:11:53.543Z,44.17
2023-03-08T02:16:56.427Z,45.25
2023-03-08T02:21:58.997Z,46.30
2023-03-08T02:27:07.446Z,47.33
2023-03-08T02:32:10.105Z,43.70
2023-03-08T02:37:12.699Z,45.37
2023-03-08T02:42:16.593Z,48.28
2023-03-08T02:47:19.171Z,52.90
2023-03-08T02:52:22.033Z,50.85
2023-03-08T02:57:26.011Z,50.67
2023-03-08T03:02:28.571Z,55.13
2023-03-08T03:07:31.248Z,55.45
2023-03-08T03:12:35.181Z,59.90
2023-03-08T03:17:37.807Z,68.20
2023-03-08T03:22:40.396Z,65.90
2023-03-08T03:27:44.279Z,72.93
2023-03-08T03:32:46.964Z,76.05
2023-03-08T03:37:49.542Z,75.53
2023-03-08T03:42:53.435Z,82.38
2023-03-08T03:47:56.022Z,79.53
2023-03-08T03:52:58.618Z,90.90
2023-03-08T03:58:02.530Z,84.72
2023-03-08T04:03:05.161Z,76.63
2023-03-08T04:08:08.582Z,83.47
2023-03-08T04:13:13.236Z,84.65
2023-03-08T04:18:15.838Z,91.30
2023-03-08T04:23:18.494Z,99.95
2023-03-08T04:28:22.743Z,97.55
2023-03-08T04:33:25.421Z,95.70
2023-03-08T04:38:27.963Z,89.75
2023-03-08T04:43:32.915Z,92.30
2023-03-08T04:48:35.591Z,77.80
2023-03-08T04:53:39.140Z,77.05
2023-03-08T05:03:46.256Z,78.53
2023-03-08T05:08:48.973Z,84.25
2023-03-08T05:13:54.677Z,62.07
2023-03-08T05:18:57.239Z,65.57
2023-03-08T05:24:00.364Z,80.70
2023-03-08T05:29:06.340Z,59.58
2023-03-08T05:34:11.758Z,72.40
2023-03-08T05:39:14.320Z,74.97
2023-03-08T05:44:18.233Z,71.35
2023-03-08T05:49:20.839Z,68.25
2023-03-08T05:54:24.055Z,77.22
2023-03-08T05:59:28.519Z,65.85
2023-03-08T06:04:31.198Z,72.25
2023-03-08T06:09:33.927Z,71.15
2023-03-08T06:14:37.828Z,60.00
2023-03-08T06:19:40.414Z,54.40
2023-03-08T06:24:43.054Z,63.15
2023-03-08T06:29:48.327Z,64.95
2023-03-08T06:34:51.960Z,62.42
2023-03-08T06:44:58.303Z,53.92
2023-03-08T06:50:00.910Z,56.83
2023-03-08T06:55:04.130Z,62.30
2023-03-08T07:00:11.254Z,58.97
2023-03-08T07:05:13.828Z,61.45
2023-03-08T07:10:19.506Z,57.72
2023-03-08T07:15:25.017Z,60.88
2023-03-08T07:20:28.874Z,57.65
2023-03-08T07:25:31.659Z,51.50
2023-03-08T07:30:35.616Z,54.10
2023-03-08T07:35:40.041Z,49.63
2023-03-08T07:40:43.316Z,50.25
2023-03-08T07:45:47.231Z,47.42
2023-03-08T07:50:49.934Z,46.47
2023-03-08T07:55:52.496Z,43.10
2023-03-08T08:00:56.562Z,41.65
2023-03-08T08:06:03.048Z,43.85
2023-03-08T08:11:11.476Z,44.30
2023-03-08T08:16:16.941Z,44.28
2023-03-08T08:21:19.995Z,40.08
2023-03-08T08:26:23.404Z,38.70
2023-03-08T08:31:31.145Z,39.22
2023-03-08T08:36:33.807Z,39.80
2023-03-08T08:41:36.404Z,35.22
2023-03-08T08:46:40.723Z,34.80
2023-03-08T08:51:43.234Z,30.55
2023-03-08T08:56:45.971Z,31.33
2023-03-08T09:01:49.895Z,29.00
2023-03-08T09:06:54.898Z,25.65
2023-03-08T09:11:57.566Z,25.98
2023-03-08T09:17:01.434Z,24.53
2023-03-08T09:22:04.428Z,25.25
2023-03-08T09:27:07.633Z,25.48
2023-03-08T09:32:11.672Z,26.42
2023-03-08T09:37:14.558Z,26.45
2023-03-08T09:42:21.430Z,27.90
2023-03-08T09:47:34.480Z,31.17
2023-03-08T09:52:39.687Z,31.42
2023-03-08T09:57:49.852Z,31.98
2023-03-08T10:03:07.333Z,30.10
2023-03-08T10:08:15.233Z,30.20
2023-03-08T10:13:30.289Z,31.70
2023-03-08T10:18:39.662Z,29.25
2023-03-08T10:23:42.495Z,30.35
2023-03-08T10:28:45.192Z,26.87
2023-03-08T10:33:53.071Z,25.13
2023-03-08T10:39:16.116Z,21.77
2023-03-08T10:44:33.185Z,23.02
2023-03-08T10:49:37.084Z,20.80
2023-03-08T10:54:40.650Z,19.95
2023-03-08T11:04:55.097Z,16.60
2023-03-08T11:10:25.905Z,16.83
2023-03-08T11:15:31.671Z,16.33
2023-03-08T11:20:45.339Z,16.38
2023-03-08T11:25:51.759Z,18.30
2023-03-08T11:31:05.945Z,18.42
2023-03-08T11:36:18.433Z,19.25
2023-03-08T11:41:27.118Z,20.98
2023-03-08T11:46:40.812Z,18.98
2023-03-08T11:51:53.800Z,19.95
2023-03-08T11:56:59.490Z,19.27
2023-03-08T12:02:10.877Z,17.33
2023-03-08T12:07:20.916Z,15.98
2023-03-08T12:12:29.164Z,14.07
2023-03-08T12:17:36.984Z,13.48
2023-03-08T12:22:47.556Z,14.00
2023-03-08T12:27:57.717Z,12.82
2023-03-08T12:33:04.233Z,13.05
2023-03-08T12:38:33.263Z,11.52
2023-03-08T12:43:38.126Z,10.82
2023-03-08T12:48:50.154Z,12.43
2023-03-08T12:54:05.458Z,9.77
2023-03-08T12:59:28.916Z,10.55
2023-03-08T13:04:42.448Z,11.73
2023-03-08T13:09:54.044Z,12.15
2023-03-08T13:15:03.133Z,12.75
2023-03-08T13:20:15.347Z,14.52
2023-03-08T13:25:29.538Z,12.55
2023-03-08T13:30:35.826Z,12.02
2023-03-08T13:35:38.520Z,13.35
2023-03-08T13:40:51.771Z,13.10
2023-03-08T13:45:57.319Z,12.60
2023-03-08T13:51:00.667Z,12.32
2023-03-08T13:56:07.031Z,12.05
2023-03-08T14:01:12.936Z,11.00
2023-03-08T14:06:22.155Z,10.82
2023-03-08T14:11:29.534Z,12.63
2023-03-08T14:16:35.183Z,12.02
2023-03-08T14:21:38.285Z,11.43
2023-03-08T14:26:42.398Z,11.45
2023-03-08T14:31:57.466Z,11.18
2023-03-08T14:37:02.208Z,11.63
2023-03-08T14:42:23.080Z,13.05
2023-03-08T14:47:27.225Z,11.32
2023-03-08T14:52:31.539Z,11.93
2023-03-08T14:57:35.550Z,11.40
2023-03-08T15:02:38.112Z,10.82
2023-03-08T15:07:40.764Z,11.88
2023-03-08T15:12:45.732Z,9.85
2023-03-08T15:17:48.411Z,10.95
2023-03-08T15:22:53.780Z,10.80
2023-03-08T15:27:58.072Z,12.05
2023-03-08T15:33:02.099Z,12.65
2023-03-08T15:38:04.970Z,14.45
2023-03-08T15:43:09.578Z,11.07
2023-03-08T15:48:15.007Z,12.93
2023-03-08T15:53:29.594Z,13.38
2023-03-08T15:58:38.342Z,13.70
2023-03-08T16:03:40.944Z,12.85
2023-03-08T16:08:43.532Z,13.95
2023-03-08T16:13:49.672Z,14.38
2023-03-08T16:18:52.292Z,16.67
2023-03-08T16:23:54.861Z,13.73
2023-03-08T16:28:58.777Z,11.68
2023-03-08T16:34:03.467Z,15.07
2023-03-08T16:39:07.089Z,13.98
2023-03-08T16:49:28.393Z,15.18
2023-03-08T16:54:31.241Z,14.27
2023-03-08T16:59:35.178Z,15.27
2023-03-08T17:04:37.781Z,12.57
2023-03-08T17:09:40.862Z,16.05
2023-03-08T17:14:45.093Z,13.65
2023-03-08T17:19:47.753Z,15.88
2023-03-08T17:24:50.334Z,15.60
2023-03-08T17:29:54.438Z,14.20
2023-03-08T17:34:57.038Z,14.88
2023-03-08T17:39:59.642Z,14.50
2023-03-08T17:45:06.280Z,13.75
2023-03-08T17:50:11.007Z,14.43
2023-03-08T17:55:13.606Z,15.60
2023-03-08T18:00:18.327Z,13.65
2023-03-08T18:05:20.916Z,17.02
2023-03-08T18:10:23.865Z,18.13
2023-03-08T18:15:27.891Z,13.77
2023-03-08T18:20:30.445Z,13.77
2023-03-08T18:25:33.765Z,12.30
2023-03-08T18:30:38.887Z,11.45
2023-03-08T18:35:41.520Z,11.15
2023-03-08T18:40:44.157Z,12.00
2023-03-08T18:45:55.616Z,11.18
2023-03-08T18:51:01.814Z,11.98
2023-03-08T18:56:05.047Z,14.40
2023-03-08T19:01:13.521Z,13.68
2023-03-08T19:06:16.268Z,11.45
2023-03-08T19:11:22.083Z,10.95
2023-03-08T19:16:27.990Z,11.48
2023-03-08T19:21:32.387Z,10.68
2023-03-08T19:26:41.078Z,10.40
2023-03-08T19:31:46.910Z,11.23
2023-03-08T19:36:50.228Z,10.90
2023-03-08T19:41:54.747Z,9.85
2023-03-08T19:46:59.643Z,10.65
2023-03-08T19:52:05.101Z,9.98
2023-03-08T19:57:07.719Z,9.93
2023-03-08T20:02:13.868Z,9.82
2023-03-08T20:07:16.417Z,10.05
2023-03-08T20:12:18.975Z,9.48
2023-03-08T20:17:23.967Z,10.48
2023-03-08T20:22:26.540Z,8.93
2023-03-08T20:27:29.802Z,8.55
2023-03-08T20:32:33.881Z,9.93
2023-03-08T20:37:36.528Z,11.10
2023-03-08T20:42:39.108Z,10.82
2023-03-08T20:47:43.043Z,10.65
2023-03-08T20:52:48.096Z,11.77
2023-03-08T20:57:52.490Z,11.07
2023-03-08T21:02:56.463Z,11.40
2023-03-08T21:07:59.153Z,12.48
2023-03-08T21:13:01.753Z,13.20
2023-03-08T21:18:05.777Z,12.15
2023-03-08T21:23:08.302Z,13.48
2023-03-08T21:28:10.873Z,14.57
2023-03-08T21:33:14.870Z,13.43
2023-03-08T21:38:17.461Z,14.63
2023-03-08T21:43:20.070Z,14.98
2023-03-08T21:48:24.196Z,15.17
2023-03-08T21:53:26.743Z,14.57
2023-03-08T21:58:29.556Z,14.43
2023-03-08T22:03:34.707Z,14.47
2023-03-08T22:08:37.327Z,14.95
2023-03-08T22:13:40.132Z,15.30
2023-03-08T22:18:44.130Z,15.10
2023-03-08T22:23:51.531Z,17.48
2023-03-08T22:28:55.011Z,15.77
2023-03-08T22:34:00.433Z,17.63
2023-03-08T22:39:03.537Z,16.48
2023-03-08T22:44:06.587Z,17.33
2023-03-08T22:49:12.480Z,18.08
2023-03-08T22:54:16.878Z,18.50
2023-03-08T22:59:19.577Z,18.23
2023-03-08T23:04:23.527Z,18.00
2023-03-08T23:09:26.096Z,15.20
2023-03-08T23:14:28.840Z,15.23
2023-03-08T23:19:32.818Z,16.83
2023-03-08T23:24:35.472Z,17.05
2023-03-08T23:29:38.397Z,15.03
2023-03-08T23:34:44.132Z,16.40
2023-03-08T23:39:46.685Z,17.70
2023-03-08T23:44:49.251Z,15.07
2023-03-08T23:49:53.705Z,16.10
2023-03-08T23:54:56.312Z,15.75
2023-03-08T23:59:59.414Z,17.35
